sensor_id;sensor_type;location;lat;lon;timestamp;temperature;humidity
6496;DHT22;3281;47.658;9.166;2023-05-06T00:01:41;14.70;1.00
6496;DHT22;3281;47.658;9.166;2023-05-06T00:04:08;14.70;1.00
6496;DHT22;3281;47.658;9.166;2023-05-06T00:06:36;14.70;1.00
6496;DHT22;3281;47.658;9.166;2023-05-06T00:09:02;14.80;1.00
6496;DHT22;3281;47.658;9.166;2023-05-06T00:11:29;14.80;1.00
6496;DHT22;3281;47.658;9.166;2023-05-06T00:13:56;14.80;1.00
6496;DHT22;3281;47.658;9.166;2023-05-06T00:16:22;14.70;1.00
6496;DHT22;3281;47.658;9.166;2023-05-06T00:18:50;14.60;1.00
6496;DHT22;3281;47.658;9.166;2023-05-06T00:21:17;14.60;1.00
6496;DHT22;3281;47.658;9.166;2023-05-06T00:23:44;14.70;1.00
6496;DHT22;3281;47.658;9.166;2023-05-06T00:26:10;14.60;1.00
6496;DHT22;3281;47.658;9.166;2023-05-06T00:28:37;14.60;1.00
6496;DHT22;3281;47.658;9.166;2023-05-06T00:31:04;14.70;1.00
6496;DHT22;3281;47.658;9.166;2023-05-06T00:33:31;14.70;1.00
6496;DHT22;3281;47.658;9.166;2023-05-06T00:35:59;14.60;1.00
6496;DHT22;3281;47.658;9.166;2023-05-06T00:38:26;14.60;1.00
6496;DHT22;3281;47.658;9.166;2023-05-06T00:40:52;14.60;1.00
6496;DHT22;3281;47.658;9.166;2023-05-06T00:43:19;14.70;1.00
6496;DHT22;3281;47.658;9.166;2023-05-06T00:45:46;14.60;1.00
6496;DHT22;3281;47.658;9.166;2023-05-06T00:48:13;14.60;1.00
6496;DHT22;3281;47.658;9.166;2023-05-06T00:50:41;14.50;1.00
6496;DHT22;3281;47.658;9.166;2023-05-06T00:53:10;14.40;1.00
6496;DHT22;3281;47.658;9.166;2023-05-06T00:55:37;14.40;1.00
6496;DHT22;3281;47.658;9.166;2023-05-06T00:58:05;14.40;1.00
6496;DHT22;3281;47.658;9.166;2023-05-06T01:00:32;14.40;1.00
6496;DHT22;3281;47.658;9.166;2023-05-06T01:02:59;14.30;1.00
6496;DHT22;3281;47.658;9.166;2023-05-06T01:05:31;14.30;1.00
6496;DHT22;3281;47.658;9.166;2023-05-06T01:08:05;14.20;1.00
6496;DHT22;3281;47.658;9.166;2023-05-06T01:10:43;14.20;1.00
6496;DHT22;3281;47.658;9.166;2023-05-06T01:13:15;14.10;1.00
6496;DHT22;3281;47.658;9.166;2023-05-06T01:15:45;14.10;1.00
6496;DHT22;3281;47.658;9.166;2023-05-06T01:18:15;14.10;1.00
6496;DHT22;3281;47.658;9.166;2023-05-06T01:20:46;14.20;1.00
6496;DHT22;3281;47.658;9.166;2023-05-06T01:23:15;14.20;1.00
6496;DHT22;3281;47.658;9.166;2023-05-06T01:25:42;14.30;1.00
6496;DHT22;3281;47.658;9.166;2023-05-06T01:28:10;14.20;1.00
6496;DHT22;3281;47.658;9.166;2023-05-06T01:30:39;14.20;1.00
6496;DHT22;3281;47.658;9.166;2023-05-06T01:33:13;14.20;1.00
6496;DHT22;3281;47.658;9.166;2023-05-06T01:35:49;14.20;1.00
6496;DHT22;3281;47.658;9.166;2023-05-06T01:38:26;14.10;1.00
6496;DHT22;3281;47.658;9.166;2023-05-06T01:40:57;14.10;1.00
6496;DHT22;3281;47.658;9.166;2023-05-06T01:43:25;14.20;1.00
6496;DHT22;3281;47.658;9.166;2023-05-06T01:45:54;14.30;1.00
6496;DHT22;3281;47.658;9.166;2023-05-06T01:48:22;14.20;1.00
6496;DHT22;3281;47.658;9.166;2023-05-06T01:50:50;14.20;1.00
6496;DHT22;3281;47.658;9.166;2023-05-06T01:53:18;14.20;1.00
6496;DHT22;3281;47.658;9.166;2023-05-06T01:55:45;14.10;1.00
6496;DHT22;3281;47.658;9.166;2023-05-06T01:58:12;14.20;1.00
6496;DHT22;3281;47.658;9.166;2023-05-06T02:00:39;14.10;1.00
6496;DHT22;3281;47.658;9.166;2023-05-06T02:03:06;14.10;1.00
6496;DHT22;3281;47.658;9.166;2023-05-06T02:05:33;14.10;1.00
6496;DHT22;3281;47.658;9.166;2023-05-06T02:08:00;14.10;1.00
6496;DHT22;3281;47.658;9.166;2023-05-06T02:10:28;14.10;1.00
6496;DHT22;3281;47.658;9.166;2023-05-06T02:12:55;14.30;2.30
6496;DHT22;3281;47.658;9.166;2023-05-06T02:15:22;14.30;1.00
6496;DHT22;3281;47.658;9.166;2023-05-06T02:17:49;14.30;1.70
6496;DHT22;3281;47.658;9.166;2023-05-06T02:20:16;14.30;1.50
6496;DHT22;3281;47.658;9.166;2023-05-06T02:22:42;14.20;1.50
6496;DHT22;3281;47.658;9.166;2023-05-06T02:25:09;14.20;1.50
6496;DHT22;3281;47.658;9.166;2023-05-06T02:27:37;14.20;1.80
6496;DHT22;3281;47.658;9.166;2023-05-06T02:30:05;14.30;3.70
6496;DHT22;3281;47.658;9.166;2023-05-06T02:32:31;14.30;1.90
6496;DHT22;3281;47.658;9.166;2023-05-06T02:34:58;14.30;3.90
6496;DHT22;3281;47.658;9.166;2023-05-06T02:37:25;14.30;3.50
6496;DHT22;3281;47.658;9.166;2023-05-06T02:39:51;14.30;5.70
6496;DHT22;3281;47.658;9.166;2023-05-06T02:42:18;14.30;6.00
6496;DHT22;3281;47.658;9.166;2023-05-06T02:44:46;14.30;5.90
6496;DHT22;3281;47.658;9.166;2023-05-06T02:47:13;14.30;5.80
6496;DHT22;3281;47.658;9.166;2023-05-06T02:49:40;14.30;3.80
6496;DHT22;3281;47.658;9.166;2023-05-06T02:52:07;14.40;6.90
6496;DHT22;3281;47.658;9.166;2023-05-06T02:54:33;14.40;3.60
6496;DHT22;3281;47.658;9.166;2023-05-06T02:57:00;14.30;6.80
6496;DHT22;3281;47.658;9.166;2023-05-06T02:59:27;14.30;6.90
6496;DHT22;3281;47.658;9.166;2023-05-06T03:01:55;14.30;9.30
6496;DHT22;3281;47.658;9.166;2023-05-06T03:04:22;14.40;10.30
6496;DHT22;3281;47.658;9.166;2023-05-06T03:06:48;14.40;11.20
6496;DHT22;3281;47.658;9.166;2023-05-06T03:09:15;14.40;9.70
6496;DHT22;3281;47.658;9.166;2023-05-06T03:11:42;14.30;10.10
6496;DHT22;3281;47.658;9.166;2023-05-06T03:14:08;14.30;11.10
6496;DHT22;3281;47.658;9.166;2023-05-06T03:16:35;14.30;10.40
6496;DHT22;3281;47.658;9.166;2023-05-06T03:19:03;14.30;10.90
6496;DHT22;3281;47.658;9.166;2023-05-06T03:21:30;14.30;10.70
6496;DHT22;3281;47.658;9.166;2023-05-06T03:23:57;14.40;16.00
6496;DHT22;3281;47.658;9.166;2023-05-06T03:26:24;14.30;16.10
6496;DHT22;3281;47.658;9.166;2023-05-06T03:28:51;14.30;14.30
6496;DHT22;3281;47.658;9.166;2023-05-06T03:31:17;14.30;16.10
6496;DHT22;3281;47.658;9.166;2023-05-06T03:33:44;14.30;16.10
6496;DHT22;3281;47.658;9.166;2023-05-06T03:36:12;14.20;15.10
6496;DHT22;3281;47.658;9.166;2023-05-06T03:38:39;14.20;15.50
6496;DHT22;3281;47.658;9.166;2023-05-06T03:41:06;14.10;15.80
6496;DHT22;3281;47.658;9.166;2023-05-06T03:43:32;14.20;17.90
6496;DHT22;3281;47.658;9.166;2023-05-06T03:45:59;14.20;19.90
6496;DHT22;3281;47.658;9.166;2023-05-06T03:48:26;14.10;20.20
6496;DHT22;3281;47.658;9.166;2023-05-06T03:50:52;14.10;20.90
6496;DHT22;3281;47.658;9.166;2023-05-06T03:53:20;14.10;22.40
6496;DHT22;3281;47.658;9.166;2023-05-06T03:55:47;14.10;24.20
6496;DHT22;3281;47.658;9.166;2023-05-06T03:58:14;14.00;25.00
6496;DHT22;3281;47.658;9.166;2023-05-06T04:00:40;14.10;25.00
6496;DHT22;3281;47.658;9.166;2023-05-06T04:03:07;14.10;25.50
6496;DHT22;3281;47.658;9.166;2023-05-06T04:05:34;14.20;25.10
6496;DHT22;3281;47.658;9.166;2023-05-06T04:08:00;14.10;25.00
6496;DHT22;3281;47.658;9.166;2023-05-06T04:10:28;14.10;25.30
6496;DHT22;3281;47.658;9.166;2023-05-06T04:12:55;14.00;24.90
6496;DHT22;3281;47.658;9.166;2023-05-06T04:15:22;14.20;25.80
6496;DHT22;3281;47.658;9.166;2023-05-06T04:17:49;14.30;30.50
6496;DHT22;3281;47.658;9.166;2023-05-06T04:20:15;14.20;29.50
6496;DHT22;3281;47.658;9.166;2023-05-06T04:22:42;14.30;34.10
6496;DHT22;3281;47.658;9.166;2023-05-06T04:25:09;14.30;30.70
6496;DHT22;3281;47.658;9.166;2023-05-06T04:27:37;14.20;30.00
6496;DHT22;3281;47.658;9.166;2023-05-06T04:30:05;14.20;29.50
6496;DHT22;3281;47.658;9.166;2023-05-06T04:32:32;14.20;29.70
6496;DHT22;3281;47.658;9.166;2023-05-06T04:34:59;14.20;29.40
6496;DHT22;3281;47.658;9.166;2023-05-06T04:37:26;14.30;30.40
6496;DHT22;3281;47.658;9.166;2023-05-06T04:39:52;14.30;31.00
6496;DHT22;3281;47.658;9.166;2023-05-06T04:42:20;14.40;30.20
6496;DHT22;3281;47.658;9.166;2023-05-06T04:44:48;14.40;31.30
6496;DHT22;3281;47.658;9.166;2023-05-06T04:47:15;14.40;34.50
6496;DHT22;3281;47.658;9.166;2023-05-06T04:49:42;14.40;32.70
6496;DHT22;3281;47.658;9.166;2023-05-06T04:52:09;14.40;34.40
6496;DHT22;3281;47.658;9.166;2023-05-06T04:54:35;14.40;33.50
6496;DHT22;3281;47.658;9.166;2023-05-06T04:57:02;14.50;34.80
6496;DHT22;3281;47.658;9.166;2023-05-06T04:59:29;14.40;34.90
6496;DHT22;3281;47.658;9.166;2023-05-06T05:01:57;14.50;35.10
6496;DHT22;3281;47.658;9.166;2023-05-06T05:04:23;14.50;33.30
6496;DHT22;3281;47.658;9.166;2023-05-06T05:06:50;14.50;34.80
6496;DHT22;3281;47.658;9.166;2023-05-06T05:09:17;14.50;33.70
6496;DHT22;3281;47.658;9.166;2023-05-06T05:11:44;14.50;33.30
6496;DHT22;3281;47.658;9.166;2023-05-06T05:14:11;14.50;32.30
6496;DHT22;3281;47.658;9.166;2023-05-06T05:16:37;14.50;33.50
6496;DHT22;3281;47.658;9.166;2023-05-06T05:19:05;14.50;34.80
6496;DHT22;3281;47.658;9.166;2023-05-06T05:21:32;14.60;35.30
6496;DHT22;3281;47.658;9.166;2023-05-06T05:23:59;14.50;34.10
6496;DHT22;3281;47.658;9.166;2023-05-06T05:26:25;14.50;34.40
6496;DHT22;3281;47.658;9.166;2023-05-06T05:28:52;14.60;36.20
6496;DHT22;3281;47.658;9.166;2023-05-06T05:31:19;14.50;32.60
6496;DHT22;3281;47.658;9.166;2023-05-06T05:33:45;14.50;32.80
6496;DHT22;3281;47.658;9.166;2023-05-06T05:36:14;14.50;30.70
6496;DHT22;3281;47.658;9.166;2023-05-06T05:38:40;14.50;33.40
6496;DHT22;3281;47.658;9.166;2023-05-06T05:41:07;14.60;32.00
6496;DHT22;3281;47.658;9.166;2023-05-06T05:43:34;14.50;29.60
6496;DHT22;3281;47.658;9.166;2023-05-06T05:46:01;14.40;29.50
6496;DHT22;3281;47.658;9.166;2023-05-06T05:48:27;14.40;29.50
6496;DHT22;3281;47.658;9.166;2023-05-06T05:50:55;14.40;28.00
6496;DHT22;3281;47.658;9.166;2023-05-06T05:53:23;14.40;29.30
6496;DHT22;3281;47.658;9.166;2023-05-06T05:55:50;14.40;29.20
6496;DHT22;3281;47.658;9.166;2023-05-06T05:58:17;14.40;29.50
6496;DHT22;3281;47.658;9.166;2023-05-06T06:00:43;14.40;29.30
6496;DHT22;3281;47.658;9.166;2023-05-06T06:03:10;14.50;29.70
6496;DHT22;3281;47.658;9.166;2023-05-06T06:05:37;14.40;27.80
6496;DHT22;3281;47.658;9.166;2023-05-06T06:08:04;14.50;29.60
6496;DHT22;3281;47.658;9.166;2023-05-06T06:10:32;14.60;29.70
6496;DHT22;3281;47.658;9.166;2023-05-06T06:12:59;14.50;26.30
6496;DHT22;3281;47.658;9.166;2023-05-06T06:15:26;14.60;26.80
6496;DHT22;3281;47.658;9.166;2023-05-06T06:17:53;14.60;25.20
6496;DHT22;3281;47.658;9.166;2023-05-06T06:20:20;14.60;25.30
6496;DHT22;3281;47.658;9.166;2023-05-06T06:22:47;14.60;24.40
6496;DHT22;3281;47.658;9.166;2023-05-06T06:25:13;14.70;21.30
6496;DHT22;3281;47.658;9.166;2023-05-06T06:27:41;14.80;24.20
6496;DHT22;3281;47.658;9.166;2023-05-06T06:30:09;14.80;22.20
6496;DHT22;3281;47.658;9.166;2023-05-06T06:32:46;14.80;22.00
6496;DHT22;3281;47.658;9.166;2023-05-06T06:35:13;14.80;21.20
6496;DHT22;3281;47.658;9.166;2023-05-06T06:37:40;14.90;18.50
6496;DHT22;3281;47.658;9.166;2023-05-06T06:40:09;15.00;21.10
6496;DHT22;3281;47.658;9.166;2023-05-06T06:42:36;14.90;16.70
6496;DHT22;3281;47.658;9.166;2023-05-06T06:45:06;14.90;17.60
6496;DHT22;3281;47.658;9.166;2023-05-06T06:47:33;15.00;21.10
6496;DHT22;3281;47.658;9.166;2023-05-06T06:50:00;15.20;23.60
6496;DHT22;3281;47.658;9.166;2023-05-06T06:52:27;15.20;18.70
6496;DHT22;3281;47.658;9.166;2023-05-06T06:54:53;15.40;18.10
6496;DHT22;3281;47.658;9.166;2023-05-06T06:57:20;15.40;15.00
6496;DHT22;3281;47.658;9.166;2023-05-06T06:59:47;15.60;15.60
6496;DHT22;3281;47.658;9.166;2023-05-06T07:02:17;15.70;14.20
6496;DHT22;3281;47.658;9.166;2023-05-06T07:04:44;15.80;14.20
6496;DHT22;3281;47.658;9.166;2023-05-06T07:07:11;16.00;12.90
6496;DHT22;3281;47.658;9.166;2023-05-06T07:09:37;16.00;9.10
6496;DHT22;3281;47.658;9.166;2023-05-06T07:12:05;16.20;11.80
6496;DHT22;3281;47.658;9.166;2023-05-06T07:14:32;16.30;9.00
6496;DHT22;3281;47.658;9.166;2023-05-06T07:16:59;16.40;9.30
6496;DHT22;3281;47.658;9.166;2023-05-06T07:19:28;16.50;8.60
6496;DHT22;3281;47.658;9.166;2023-05-06T07:21:56;16.60;7.60
6496;DHT22;3281;47.658;9.166;2023-05-06T07:24:23;16.70;3.60
6496;DHT22;3281;47.658;9.166;2023-05-06T07:26:49;16.70;3.50
6496;DHT22;3281;47.658;9.166;2023-05-06T07:29:16;16.70;3.50
6496;DHT22;3281;47.658;9.166;2023-05-06T07:31:43;16.60;2.00
6496;DHT22;3281;47.658;9.166;2023-05-06T07:34:09;16.80;3.50
6496;DHT22;3281;47.658;9.166;2023-05-06T07:36:37;16.80;3.80
6496;DHT22;3281;47.658;9.166;2023-05-06T07:39:07;16.90;1.00
6496;DHT22;3281;47.658;9.166;2023-05-06T07:41:34;17.00;1.30
6496;DHT22;3281;47.658;9.166;2023-05-06T07:44:01;17.00;1.00
6496;DHT22;3281;47.658;9.166;2023-05-06T07:46:28;17.10;1.00
6496;DHT22;3281;47.658;9.166;2023-05-06T07:48:55;17.20;1.00
6496;DHT22;3281;47.658;9.166;2023-05-06T07:51:21;17.30;1.00
6496;DHT22;3281;47.658;9.166;2023-05-06T07:53:49;17.20;1.00
6496;DHT22;3281;47.658;9.166;2023-05-06T07:56:16;17.20;1.00
6496;DHT22;3281;47.658;9.166;2023-05-06T07:58:43;17.30;1.00
6496;DHT22;3281;47.658;9.166;2023-05-06T08:01:10;17.30;1.00
6496;DHT22;3281;47.658;9.166;2023-05-06T08:03:36;17.10;1.00
6496;DHT22;3281;47.658;9.166;2023-05-06T08:06:03;16.90;1.00
6496;DHT22;3281;47.658;9.166;2023-05-06T08:08:31;16.90;1.00
6496;DHT22;3281;47.658;9.166;2023-05-06T08:10:59;17.10;1.00
6496;DHT22;3281;47.658;9.166;2023-05-06T08:13:26;17.20;1.00
6496;DHT22;3281;47.658;9.166;2023-05-06T08:15:54;17.30;1.00
6496;DHT22;3281;47.658;9.166;2023-05-06T08:18:21;17.60;1.00
6496;DHT22;3281;47.658;9.166;2023-05-06T08:20:48;17.70;1.00
6496;DHT22;3281;47.658;9.166;2023-05-06T08:23:15;17.90;1.00
6496;DHT22;3281;47.658;9.166;2023-05-06T08:25:42;17.90;1.00
6496;DHT22;3281;47.658;9.166;2023-05-06T08:28:10;18.20;1.00
6496;DHT22;3281;47.658;9.166;2023-05-06T08:30:37;18.10;1.00
6496;DHT22;3281;47.658;9.166;2023-05-06T08:33:03;18.00;1.00
6496;DHT22;3281;47.658;9.166;2023-05-06T08:35:30;18.10;1.00
6496;DHT22;3281;47.658;9.166;2023-05-06T08:37:57;18.00;1.00
6496;DHT22;3281;47.658;9.166;2023-05-06T08:40:25;18.20;1.00
6496;DHT22;3281;47.658;9.166;2023-05-06T08:42:54;18.20;1.00
6496;DHT22;3281;47.658;9.166;2023-05-06T08:45:23;18.20;1.00
6496;DHT22;3281;47.658;9.166;2023-05-06T08:47:50;18.30;1.00
6496;DHT22;3281;47.658;9.166;2023-05-06T08:50:17;18.40;1.00
6496;DHT22;3281;47.658;9.166;2023-05-06T08:52:44;18.40;1.00
6496;DHT22;3281;47.658;9.166;2023-05-06T08:55:12;18.50;1.00
6496;DHT22;3281;47.658;9.166;2023-05-06T08:57:40;18.60;1.00
6496;DHT22;3281;47.658;9.166;2023-05-06T09:00:08;18.60;1.00
6496;DHT22;3281;47.658;9.166;2023-05-06T09:02:38;18.50;1.00
6496;DHT22;3281;47.658;9.166;2023-05-06T09:05:05;18.70;1.00
6496;DHT22;3281;47.658;9.166;2023-05-06T09:07:33;18.70;1.00
6496;DHT22;3281;47.658;9.166;2023-05-06T09:10:04;18.80;1.00
6496;DHT22;3281;47.658;9.166;2023-05-06T09:12:31;18.80;1.00
6496;DHT22;3281;47.658;9.166;2023-05-06T09:14:59;19.00;1.00
6496;DHT22;3281;47.658;9.166;2023-05-06T09:17:30;19.00;1.00
6496;DHT22;3281;47.658;9.166;2023-05-06T09:19:58;18.90;1.00
6496;DHT22;3281;47.658;9.166;2023-05-06T09:22:26;19.00;1.00
6496;DHT22;3281;47.658;9.166;2023-05-06T09:24:53;19.10;1.00
6496;DHT22;3281;47.658;9.166;2023-05-06T09:27:22;19.10;1.00
6496;DHT22;3281;47.658;9.166;2023-05-06T09:29:59;19.30;1.00
6496;DHT22;3281;47.658;9.166;2023-05-06T09:32:27;19.60;1.00
6496;DHT22;3281;47.658;9.166;2023-05-06T09:34:53;19.70;1.00
6496;DHT22;3281;47.658;9.166;2023-05-06T09:37:21;20.10;1.00
6496;DHT22;3281;47.658;9.166;2023-05-06T09:39:52;21.10;1.00
6496;DHT22;3281;47.658;9.166;2023-05-06T09:42:21;21.70;1.00
6496;DHT22;3281;47.658;9.166;2023-05-06T09:44:50;21.70;1.00
6496;DHT22;3281;47.658;9.166;2023-05-06T09:47:17;22.30;1.00
6496;DHT22;3281;47.658;9.166;2023-05-06T09:49:44;22.70;1.00
6496;DHT22;3281;47.658;9.166;2023-05-06T09:52:11;22.70;1.00
6496;DHT22;3281;47.658;9.166;2023-05-06T09:54:39;23.40;1.00
6496;DHT22;3281;47.658;9.166;2023-05-06T09:57:06;23.90;1.00
6496;DHT22;3281;47.658;9.166;2023-05-06T09:59:35;24.00;1.00
6496;DHT22;3281;47.658;9.166;2023-05-06T10:02:03;24.10;1.00
6496;DHT22;3281;47.658;9.166;2023-05-06T10:04:32;24.50;1.00
6496;DHT22;3281;47.658;9.166;2023-05-06T10:07:02;24.50;1.00
6496;DHT22;3281;47.658;9.166;2023-05-06T10:09:29;23.40;1.00
6496;DHT22;3281;47.658;9.166;2023-05-06T10:11:58;22.70;1.00
6496;DHT22;3281;47.658;9.166;2023-05-06T10:14:26;22.40;1.00
6496;DHT22;3281;47.658;9.166;2023-05-06T10:16:54;22.20;1.00
6496;DHT22;3281;47.658;9.166;2023-05-06T10:19:23;22.20;1.00
6496;DHT22;3281;47.658;9.166;2023-05-06T10:21:53;22.30;1.00
6496;DHT22;3281;47.658;9.166;2023-05-06T10:24:28;23.20;1.00
6496;DHT22;3281;47.658;9.166;2023-05-06T10:27:01;23.80;1.00
6496;DHT22;3281;47.658;9.166;2023-05-06T10:29:31;24.60;1.00
6496;DHT22;3281;47.658;9.166;2023-05-06T10:31:59;25.40;1.00
6496;DHT22;3281;47.658;9.166;2023-05-06T10:34:31;25.80;1.00
6496;DHT22;3281;47.658;9.166;2023-05-06T10:37:00;25.80;1.00
6496;DHT22;3281;47.658;9.166;2023-05-06T10:39:27;26.50;1.00
6496;DHT22;3281;47.658;9.166;2023-05-06T10:41:54;26.50;1.00
6496;DHT22;3281;47.658;9.166;2023-05-06T10:44:56;26.70;1.00
6496;DHT22;3281;47.658;9.166;2023-05-06T10:47:23;27.00;1.00
6496;DHT22;3281;47.658;9.166;2023-05-06T10:50:18;26.70;1.00
6496;DHT22;3281;47.658;9.166;2023-05-06T10:52:46;26.40;1.00
6496;DHT22;3281;47.658;9.166;2023-05-06T10:55:26;26.10;1.00
6496;DHT22;3281;47.658;9.166;2023-05-06T10:57:54;26.20;1.00
6496;DHT22;3281;47.658;9.166;2023-05-06T11:00:23;27.00;1.00
6496;DHT22;3281;47.658;9.166;2023-05-06T11:02:55;26.40;1.00
6496;DHT22;3281;47.658;9.166;2023-05-06T11:05:22;26.60;1.00
6496;DHT22;3281;47.658;9.166;2023-05-06T11:07:49;26.80;1.00
6496;DHT22;3281;47.658;9.166;2023-05-06T11:10:30;26.50;1.00
6496;DHT22;3281;47.658;9.166;2023-05-06T11:12:58;26.00;1.00
6496;DHT22;3281;47.658;9.166;2023-05-06T11:15:44;25.10;1.00
6496;DHT22;3281;47.658;9.166;2023-05-06T11:18:40;24.20;1.00
6496;DHT22;3281;47.658;9.166;2023-05-06T11:21:37;23.40;1.00
6496;DHT22;3281;47.658;9.166;2023-05-06T11:24:09;22.40;1.00
6496;DHT22;3281;47.658;9.166;2023-05-06T11:26:38;22.20;1.00
6496;DHT22;3281;47.658;9.166;2023-05-06T11:29:05;22.00;1.00
6496;DHT22;3281;47.658;9.166;2023-05-06T11:31:38;21.90;1.00
6496;DHT22;3281;47.658;9.166;2023-05-06T11:34:08;21.70;1.00
6496;DHT22;3281;47.658;9.166;2023-05-06T11:36:37;21.70;1.00
6496;DHT22;3281;47.658;9.166;2023-05-06T11:39:10;21.60;1.00
6496;DHT22;3281;47.658;9.166;2023-05-06T11:41:38;21.80;1.00
6496;DHT22;3281;47.658;9.166;2023-05-06T11:44:06;21.80;1.00
6496;DHT22;3281;47.658;9.166;2023-05-06T11:46:35;21.80;1.00
6496;DHT22;3281;47.658;9.166;2023-05-06T11:49:02;21.80;1.00
6496;DHT22;3281;47.658;9.166;2023-05-06T11:51:28;21.80;1.00
6496;DHT22;3281;47.658;9.166;2023-05-06T11:54:07;21.90;1.00
6496;DHT22;3281;47.658;9.166;2023-05-06T11:56:44;21.70;1.00
6496;DHT22;3281;47.658;9.166;2023-05-06T11:59:11;21.60;1.00
6496;DHT22;3281;47.658;9.166;2023-05-06T12:01:41;21.40;1.00
6496;DHT22;3281;47.658;9.166;2023-05-06T12:04:09;21.30;1.00
6496;DHT22;3281;47.658;9.166;2023-05-06T12:06:37;21.50;1.00
6496;DHT22;3281;47.658;9.166;2023-05-06T12:09:05;21.60;1.00
6496;DHT22;3281;47.658;9.166;2023-05-06T12:11:34;21.70;1.00
6496;DHT22;3281;47.658;9.166;2023-05-06T12:14:01;21.50;1.00
6496;DHT22;3281;47.658;9.166;2023-05-06T12:16:29;21.40;1.00
6496;DHT22;3281;47.658;9.166;2023-05-06T12:18:57;21.40;1.00
6496;DHT22;3281;47.658;9.166;2023-05-06T12:21:24;21.30;1.00
6496;DHT22;3281;47.658;9.166;2023-05-06T12:23:52;21.30;1.00
6496;DHT22;3281;47.658;9.166;2023-05-06T12:26:19;21.20;1.00
6496;DHT22;3281;47.658;9.166;2023-05-06T12:28:46;21.20;1.00
6496;DHT22;3281;47.658;9.166;2023-05-06T12:31:29;21.20;1.00
6496;DHT22;3281;47.658;9.166;2023-05-06T12:33:57;21.20;1.00
6496;DHT22;3281;47.658;9.166;2023-05-06T12:36:24;21.20;1.00
6496;DHT22;3281;47.658;9.166;2023-05-06T12:38:51;21.30;1.00
6496;DHT22;3281;47.658;9.166;2023-05-06T12:41:18;21.30;1.00
6496;DHT22;3281;47.658;9.166;2023-05-06T12:43:45;21.40;1.00
6496;DHT22;3281;47.658;9.166;2023-05-06T12:46:14;21.40;1.00
6496;DHT22;3281;47.658;9.166;2023-05-06T12:48:54;21.40;1.00
6496;DHT22;3281;47.658;9.166;2023-05-06T12:51:22;21.50;1.00
6496;DHT22;3281;47.658;9.166;2023-05-06T12:53:49;21.40;1.00
6496;DHT22;3281;47.658;9.166;2023-05-06T12:56:16;21.50;1.00
6496;DHT22;3281;47.658;9.166;2023-05-06T12:58:42;21.40;1.00
6496;DHT22;3281;47.658;9.166;2023-05-06T13:01:09;21.30;1.00
6496;DHT22;3281;47.658;9.166;2023-05-06T13:03:36;21.40;1.00
6496;DHT22;3281;47.658;9.166;2023-05-06T13:06:05;21.30;1.00
6496;DHT22;3281;47.658;9.166;2023-05-06T13:08:33;21.20;1.00
6496;DHT22;3281;47.658;9.166;2023-05-06T13:11:00;21.10;1.00
6496;DHT22;3281;47.658;9.166;2023-05-06T13:13:27;21.00;1.00
6496;DHT22;3281;47.658;9.166;2023-05-06T13:15:54;21.00;1.00
6496;DHT22;3281;47.658;9.166;2023-05-06T13:18:21;20.90;1.00
6496;DHT22;3281;47.658;9.166;2023-05-06T13:20:48;20.80;1.00
6496;DHT22;3281;47.658;9.166;2023-05-06T13:23:16;20.70;1.00
6496;DHT22;3281;47.658;9.166;2023-05-06T13:25:45;20.70;1.00
6496;DHT22;3281;47.658;9.166;2023-05-06T13:28:11;20.80;1.00
6496;DHT22;3281;47.658;9.166;2023-05-06T13:30:38;20.80;1.00
6496;DHT22;3281;47.658;9.166;2023-05-06T13:33:05;20.90;1.00
6496;DHT22;3281;47.658;9.166;2023-05-06T13:35:32;21.00;1.00
6496;DHT22;3281;47.658;9.166;2023-05-06T13:37:58;21.00;1.00
6496;DHT22;3281;47.658;9.166;2023-05-06T13:40:25;20.90;1.00
6496;DHT22;3281;47.658;9.166;2023-05-06T13:42:53;21.10;1.00
6496;DHT22;3281;47.658;9.166;2023-05-06T13:45:20;21.10;1.00
6496;DHT22;3281;47.658;9.166;2023-05-06T13:47:47;21.00;1.00
6496;DHT22;3281;47.658;9.166;2023-05-06T13:50:14;21.00;1.00
6496;DHT22;3281;47.658;9.166;2023-05-06T13:52:41;20.90;1.00
6496;DHT22;3281;47.658;9.166;2023-05-06T13:55:07;20.90;1.00
6496;DHT22;3281;47.658;9.166;2023-05-06T13:57:34;21.00;1.00
6496;DHT22;3281;47.658;9.166;2023-05-06T14:00:03;21.00;1.00
6496;DHT22;3281;47.658;9.166;2023-05-06T14:02:31;21.30;1.00
6496;DHT22;3281;47.658;9.166;2023-05-06T14:04:58;21.40;1.00
6496;DHT22;3281;47.658;9.166;2023-05-06T14:07:26;21.50;1.00
6496;DHT22;3281;47.658;9.166;2023-05-06T14:09:53;21.60;1.00
6496;DHT22;3281;47.658;9.166;2023-05-06T14:12:19;21.60;1.00
6496;DHT22;3281;47.658;9.166;2023-05-06T14:14:47;21.70;1.00
6496;DHT22;3281;47.658;9.166;2023-05-06T14:17:15;21.70;1.00
6496;DHT22;3281;47.658;9.166;2023-05-06T14:19:41;21.60;1.00
6496;DHT22;3281;47.658;9.166;2023-05-06T14:22:08;21.70;1.00
6496;DHT22;3281;47.658;9.166;2023-05-06T14:24:35;21.70;1.00
6496;DHT22;3281;47.658;9.166;2023-05-06T14:27:01;21.80;1.00
6496;DHT22;3281;47.658;9.166;2023-05-06T14:29:28;21.70;1.00
6496;DHT22;3281;47.658;9.166;2023-05-06T14:31:55;21.60;1.00
6496;DHT22;3281;47.658;9.166;2023-05-06T14:34:23;21.50;1.00
6496;DHT22;3281;47.658;9.166;2023-05-06T14:36:51;21.40;1.00
6496;DHT22;3281;47.658;9.166;2023-05-06T14:39:17;21.40;1.00
6496;DHT22;3281;47.658;9.166;2023-05-06T14:41:44;21.40;1.00
6496;DHT22;3281;47.658;9.166;2023-05-06T14:44:11;21.50;1.00
6496;DHT22;3281;47.658;9.166;2023-05-06T14:46:37;21.60;1.00
6496;DHT22;3281;47.658;9.166;2023-05-06T14:49:04;21.80;1.00
6496;DHT22;3281;47.658;9.166;2023-05-06T14:51:32;21.80;1.00
6496;DHT22;3281;47.658;9.166;2023-05-06T14:53:59;21.70;1.00
6496;DHT22;3281;47.658;9.166;2023-05-06T14:56:26;21.60;1.00
6496;DHT22;3281;47.658;9.166;2023-05-06T14:58:53;21.50;1.00
6496;DHT22;3281;47.658;9.166;2023-05-06T15:01:19;21.40;1.00
6496;DHT22;3281;47.658;9.166;2023-05-06T15:03:46;21.40;1.00
6496;DHT22;3281;47.658;9.166;2023-05-06T15:06:15;21.30;1.00
6496;DHT22;3281;47.658;9.166;2023-05-06T15:08:43;21.20;1.00
6496;DHT22;3281;47.658;9.166;2023-05-06T15:11:10;21.10;1.00
6496;DHT22;3281;47.658;9.166;2023-05-06T15:13:37;21.10;1.00
6496;DHT22;3281;47.658;9.166;2023-05-06T15:16:04;21.20;1.00
6496;DHT22;3281;47.658;9.166;2023-05-06T15:18:31;21.20;1.00
6496;DHT22;3281;47.658;9.166;2023-05-06T15:20:58;21.20;1.00
6496;DHT22;3281;47.658;9.166;2023-05-06T15:23:25;21.20;1.00
6496;DHT22;3281;47.658;9.166;2023-05-06T15:25:55;21.20;1.00
6496;DHT22;3281;47.658;9.166;2023-05-06T15:28:21;21.10;1.00
6496;DHT22;3281;47.658;9.166;2023-05-06T15:30:48;21.00;1.00
6496;DHT22;3281;47.658;9.166;2023-05-06T15:33:15;21.00;1.00
6496;DHT22;3281;47.658;9.166;2023-05-06T15:35:41;21.00;1.00
6496;DHT22;3281;47.658;9.166;2023-05-06T15:38:08;21.00;1.00
6496;DHT22;3281;47.658;9.166;2023-05-06T15:40:36;20.90;1.00
6496;DHT22;3281;47.658;9.166;2023-05-06T15:43:06;21.00;1.00
6496;DHT22;3281;47.658;9.166;2023-05-06T15:45:33;21.00;1.00
6496;DHT22;3281;47.658;9.166;2023-05-06T15:48:00;21.10;1.00
6496;DHT22;3281;47.658;9.166;2023-05-06T15:50:29;21.10;1.00
6496;DHT22;3281;47.658;9.166;2023-05-06T15:52:56;21.00;1.00
6496;DHT22;3281;47.658;9.166;2023-05-06T15:55:22;21.10;1.00
6496;DHT22;3281;47.658;9.166;2023-05-06T15:57:49;21.00;1.00
6496;DHT22;3281;47.658;9.166;2023-05-06T16:00:19;20.90;1.00
6496;DHT22;3281;47.658;9.166;2023-05-06T16:02:46;21.00;1.00
6496;DHT22;3281;47.658;9.166;2023-05-06T16:05:13;21.00;1.00
6496;DHT22;3281;47.658;9.166;2023-05-06T16:07:39;21.00;1.00
6496;DHT22;3281;47.658;9.166;2023-05-06T16:10:07;21.10;1.00
6496;DHT22;3281;47.658;9.166;2023-05-06T16:12:34;21.10;1.00
6496;DHT22;3281;47.658;9.166;2023-05-06T16:15:00;21.00;1.00
6496;DHT22;3281;47.658;9.166;2023-05-06T16:17:29;21.10;1.00
6496;DHT22;3281;47.658;9.166;2023-05-06T16:19:57;21.10;1.00